sensor_id;sensor_type;location;lat;lon;timestamp;pressure;altitude;pressure_sealevel;temperature;humidity
6224;BME280;3145;42.726;23.342;2023-02-13T00:00:24;97123.19;;;0.21;nan
6224;BME280;3145;42.726;23.342;2023-02-13T00:02:51;97124.03;;;0.21;nan
6224;BME280;3145;42.726;23.342;2023-02-13T00:05:18;97122.38;;;0.20;nan
6224;BME280;3145;42.726;23.342;2023-02-13T00:07:45;97108.91;;;0.12;nan
6224;BME280;3145;42.726;23.342;2023-02-13T00:10:12;97126.91;;;0.15;nan
6224;BME280;3145;42.726;23.342;2023-02-13T00:12:38;97119.28;;;0.12;nan
6224;BME280;3145;42.726;23.342;2023-02-13T00:15:06;97108.41;;;0.04;nan
6224;BME280;3145;42.726;23.342;2023-02-13T00:17:35;97122.78;;;0.11;nan
6224;BME280;3145;42.726;23.342;2023-02-13T00:20:02;97132.19;;;0.13;nan
6224;BME280;3145;42.726;23.342;2023-02-13T00:22:29;97074.94;;;-0.21;nan
6224;BME280;3145;42.726;23.342;2023-02-13T00:24:55;97131.44;;;0.12;nan
6224;BME280;3145;42.726;23.342;2023-02-13T00:27:22;97128.97;;;0.08;nan
6224;BME280;3145;42.726;23.342;2023-02-13T00:29:49;97126.59;;;0.04;nan
6224;BME280;3145;42.726;23.342;2023-02-13T00:32:16;97124.91;;;0.03;nan
6224;BME280;3145;42.726;23.342;2023-02-13T00:34:44;97138.72;;;0.03;nan
6224;BME280;3145;42.726;23.342;2023-02-13T00:37:10;97142.09;;;0.05;nan
6224;BME280;3145;42.726;23.342;2023-02-13T00:39:37;97137.13;;;0.01;nan
6224;BME280;3145;42.726;23.342;2023-02-13T00:42:04;97130.72;;;-0.11;nan
6224;BME280;3145;42.726;23.342;2023-02-13T00:44:31;97139.91;;;-0.04;nan
6224;BME280;3145;42.726;23.342;2023-02-13T00:46:57;97144.56;;;-0.10;nan
6224;BME280;3145;42.726;23.342;2023-02-13T00:49:24;97134.31;;;-0.13;nan
6224;BME280;3145;42.726;23.342;2023-02-13T00:51:52;97143.16;;;-0.17;nan
6224;BME280;3145;42.726;23.342;2023-02-13T00:54:19;97138.69;;;-0.14;nan
6224;BME280;3145;42.726;23.342;2023-02-13T00:56:46;97148.97;;;-0.12;nan
6224;BME280;3145;42.726;23.342;2023-02-13T00:59:12;97143.88;;;-0.14;nan
6224;BME280;3145;42.726;23.342;2023-02-13T01:01:39;97129.25;;;-0.35;nan
6224;BME280;3145;42.726;23.342;2023-02-13T01:04:06;97152.53;;;-0.33;nan
6224;BME280;3145;42.726;23.342;2023-02-13T01:06:33;97155.06;;;-0.50;nan
6224;BME280;3145;42.726;23.342;2023-02-13T01:09:01;97151.00;;;-0.76;nan
6224;BME280;3145;42.726;23.342;2023-02-13T01:11:28;97146.97;;;-0.83;nan
6224;BME280;3145;42.726;23.342;2023-02-13T01:13:54;97146.16;;;-0.83;nan
6224;BME280;3145;42.726;23.342;2023-02-13T01:16:21;97146.06;;;-0.82;nan
6224;BME280;3145;42.726;23.342;2023-02-13T01:18:48;97143.94;;;-0.92;nan
6224;BME280;3145;42.726;23.342;2023-02-13T01:21:16;97142.06;;;-0.89;nan
6224;BME280;3145;42.726;23.342;2023-02-13T01:23:43;97145.44;;;-0.87;nan
6224;BME280;3145;42.726;23.342;2023-02-13T01:26:16;97137.88;;;-0.91;nan
6224;BME280;3145;42.726;23.342;2023-02-13T01:28:43;97153.78;;;-0.80;nan
6224;BME280;3145;42.726;23.342;2023-02-13T01:31:10;97148.75;;;-0.83;nan
6224;BME280;3145;42.726;23.342;2023-02-13T01:33:37;97154.56;;;-0.78;nan
6224;BME280;3145;42.726;23.342;2023-02-13T01:36:05;97161.44;;;-0.77;nan
6224;BME280;3145;42.726;23.342;2023-02-13T01:38:32;97163.84;;;-0.73;nan
6224;BME280;3145;42.726;23.342;2023-02-13T01:40:59;97160.22;;;-0.69;nan
6224;BME280;3145;42.726;23.342;2023-02-13T01:43:46;97161.19;;;-0.71;nan
6224;BME280;3145;42.726;23.342;2023-02-13T01:46:18;97167.47;;;-0.77;nan
6224;BME280;3145;42.726;23.342;2023-02-13T01:48:47;97164.09;;;-0.79;nan
6224;BME280;3145;42.726;23.342;2023-02-13T01:51:18;97164.94;;;-0.78;nan
6224;BME280;3145;42.726;23.342;2023-02-13T01:53:47;97162.13;;;-0.74;nan
6224;BME280;3145;42.726;23.342;2023-02-13T01:56:20;97159.88;;;-0.81;nan
6224;BME280;3145;42.726;23.342;2023-02-13T01:58:52;97159.63;;;-0.75;nan
6224;BME280;3145;42.726;23.342;2023-02-13T02:01:20;97159.75;;;-0.78;nan
6224;BME280;3145;42.726;23.342;2023-02-13T02:03:51;97158.09;;;-0.79;nan
6224;BME280;3145;42.726;23.342;2023-02-13T02:06:24;97168.53;;;-0.81;nan
6224;BME280;3145;42.726;23.342;2023-02-13T02:08:54;97161.50;;;-0.79;nan
6224;BME280;3145;42.726;23.342;2023-02-13T02:11:27;97148.66;;;-0.82;nan
6224;BME280;3145;42.726;23.342;2023-02-13T02:13:59;97157.94;;;-0.76;nan
6224;BME280;3145;42.726;23.342;2023-02-13T02:16:27;97151.97;;;-0.78;nan
6224;BME280;3145;42.726;23.342;2023-02-13T02:18:54;97150.16;;;-0.76;nan
6224;BME280;3145;42.726;23.342;2023-02-13T02:21:55;97158.91;;;-0.79;nan
6224;BME280;3145;42.726;23.342;2023-02-13T02:30:59;97160.59;;;-0.78;nan
6224;BME280;3145;42.726;23.342;2023-02-13T02:33:34;97152.97;;;-0.81;nan
6224;BME280;3145;42.726;23.342;2023-02-13T02:36:14;97164.81;;;-0.75;nan
6224;BME280;3145;42.726;23.342;2023-02-13T02:38:56;97164.72;;;-0.74;nan
6224;BME280;3145;42.726;23.342;2023-02-13T02:41:31;97180.25;;;-0.72;nan
6224;BME280;3145;42.726;23.342;2023-02-13T02:44:19;97181.16;;;-0.73;nan
6224;BME280;3145;42.726;23.342;2023-02-13T02:46:57;97191.59;;;-0.75;nan
6224;BME280;3145;42.726;23.342;2023-02-13T02:49:50;97192.69;;;-0.80;nan
6224;BME280;3145;42.726;23.342;2023-02-13T02:52:34;97189.53;;;-0.87;nan
6224;BME280;3145;42.726;23.342;2023-02-13T02:55:09;97195.03;;;-0.94;nan
6224;BME280;3145;42.726;23.342;2023-02-13T02:57:45;97208.38;;;-1.23;nan
6224;BME280;3145;42.726;23.342;2023-02-13T03:00:31;97199.78;;;-1.25;nan
6224;BME280;3145;42.726;23.342;2023-02-13T03:03:32;97191.09;;;-1.24;nan
6224;BME280;3145;42.726;23.342;2023-02-13T03:06:22;97196.16;;;-1.21;nan
6224;BME280;3145;42.726;23.342;2023-02-13T03:08:52;97189.44;;;-1.25;nan
6224;BME280;3145;42.726;23.342;2023-02-13T03:11:37;97194.13;;;-1.35;nan
6224;BME280;3145;42.726;23.342;2023-02-13T03:14:23;97196.06;;;-1.40;nan
6224;BME280;3145;42.726;23.342;2023-02-13T03:16:52;97193.66;;;-1.44;nan
6224;BME280;3145;42.726;23.342;2023-02-13T03:19:43;97194.50;;;-1.44;nan
6224;BME280;3145;42.726;23.342;2023-02-13T03:22:40;97204.94;;;-1.45;nan
6224;BME280;3145;42.726;23.342;2023-02-13T03:25:11;97206.19;;;-1.55;nan
6224;BME280;3145;42.726;23.342;2023-02-13T03:27:49;97209.69;;;-1.56;nan
6224;BME280;3145;42.726;23.342;2023-02-13T03:30:43;97209.81;;;-1.59;nan
6224;BME280;3145;42.726;23.342;2023-02-13T03:33:22;97212.34;;;-1.58;nan
6224;BME280;3145;42.726;23.342;2023-02-13T03:35:55;97213.91;;;-1.54;nan
6224;BME280;3145;42.726;23.342;2023-02-13T03:38:59;97201.16;;;-1.58;nan
6224;BME280;3145;42.726;23.342;2023-02-13T03:41:34;97195.97;;;-1.58;nan
6224;BME280;3145;42.726;23.342;2023-02-13T03:44:11;97204.50;;;-1.56;nan
6224;BME280;3145;42.726;23.342;2023-02-13T03:46:41;97201.31;;;-1.63;nan
6224;BME280;3145;42.726;23.342;2023-02-13T03:49:13;97203.59;;;-1.55;nan
6224;BME280;3145;42.726;23.342;2023-02-13T03:52:04;97203.75;;;-1.58;nan
6224;BME280;3145;42.726;23.342;2023-02-13T03:54:38;97204.72;;;-1.61;nan
6224;BME280;3145;42.726;23.342;2023-02-13T03:57:25;97208.22;;;-1.63;nan
6224;BME280;3145;42.726;23.342;2023-02-13T04:00:13;97207.28;;;-1.61;nan
6224;BME280;3145;42.726;23.342;2023-02-13T04:02:47;97204.97;;;-1.68;nan
6224;BME280;3145;42.726;23.342;2023-02-13T04:05:17;97132.75;;;-2.19;nan
6224;BME280;3145;42.726;23.342;2023-02-13T04:07:45;97204.53;;;-1.79;nan
6224;BME280;3145;42.726;23.342;2023-02-13T04:10:15;97200.16;;;-1.77;nan
6224;BME280;3145;42.726;23.342;2023-02-13T04:12:50;97190.88;;;-1.83;nan
6224;BME280;3145;42.726;23.342;2023-02-13T04:15:21;97199.25;;;-1.76;nan
6224;BME280;3145;42.726;23.342;2023-02-13T04:17:54;97208.66;;;-1.74;nan
6224;BME280;3145;42.726;23.342;2023-02-13T04:20:26;97209.19;;;-1.87;nan
6224;BME280;3145;42.726;23.342;2023-02-13T04:22:52;97217.25;;;-1.95;nan
6224;BME280;3145;42.726;23.342;2023-02-13T04:25:21;97205.88;;;-2.37;nan
6224;BME280;3145;42.726;23.342;2023-02-13T04:27:48;97211.00;;;-2.35;nan
6224;BME280;3145;42.726;23.342;2023-02-13T04:30:14;97204.88;;;-2.33;nan
6224;BME280;3145;42.726;23.342;2023-02-13T04:32:41;97212.72;;;-2.34;nan
6224;BME280;3145;42.726;23.342;2023-02-13T04:35:08;97212.81;;;-2.37;nan
6224;BME280;3145;42.726;23.342;2023-02-13T04:37:35;97195.81;;;-2.44;nan
6224;BME280;3145;42.726;23.342;2023-02-13T04:40:03;97196.47;;;-2.39;nan
6224;BME280;3145;42.726;23.342;2023-02-13T04:42:31;97202.53;;;-2.16;nan
6224;BME280;3145;42.726;23.342;2023-02-13T04:44:58;97175.56;;;-2.10;nan
6224;BME280;3145;42.726;23.342;2023-02-13T04:47:24;97216.88;;;-1.86;nan
6224;BME280;3145;42.726;23.342;2023-02-13T04:49:51;97222.16;;;-2.10;nan
6224;BME280;3145;42.726;23.342;2023-02-13T04:52:18;97215.97;;;-2.29;nan
6224;BME280;3145;42.726;23.342;2023-02-13T04:54:44;97215.28;;;-2.34;nan
6224;BME280;3145;42.726;23.342;2023-02-13T04:57:11;97220.38;;;-2.33;nan
6224;BME280;3145;42.726;23.342;2023-02-13T04:59:39;97224.75;;;-2.33;nan
6224;BME280;3145;42.726;23.342;2023-02-13T05:02:06;97219.56;;;-2.33;nan
6224;BME280;3145;42.726;23.342;2023-02-13T05:04:33;97225.50;;;-2.31;nan
6224;BME280;3145;42.726;23.342;2023-02-13T05:06:59;97231.69;;;-2.35;nan
6224;BME280;3145;42.726;23.342;2023-02-13T05:09:26;97223.16;;;-2.37;nan
6224;BME280;3145;42.726;23.342;2023-02-13T05:11:53;97229.91;;;-2.33;nan
6224;BME280;3145;42.726;23.342;2023-02-13T05:14:20;97225.75;;;-2.37;nan
6224;BME280;3145;42.726;23.342;2023-02-13T05:16:48;97229.81;;;-2.30;nan
6224;BME280;3145;42.726;23.342;2023-02-13T05:19:15;97231.59;;;-2.32;nan
6224;BME280;3145;42.726;23.342;2023-02-13T05:21:42;97234.03;;;-2.28;nan
6224;BME280;3145;42.726;23.342;2023-02-13T05:24:26;97235.91;;;-2.33;nan
6224;BME280;3145;42.726;23.342;2023-02-13T05:26:52;97243.19;;;-2.42;nan
6224;BME280;3145;42.726;23.342;2023-02-13T05:29:19;97226.38;;;-2.55;nan
6224;BME280;3145;42.726;23.342;2023-02-13T05:31:49;97235.38;;;-2.65;nan
6224;BME280;3145;42.726;23.342;2023-02-13T05:34:16;97242.22;;;-2.64;nan
6224;BME280;3145;42.726;23.342;2023-02-13T05:36:43;97242.91;;;-2.59;nan
6224;BME280;3145;42.726;23.342;2023-02-13T05:39:09;97247.78;;;-2.50;nan
6224;BME280;3145;42.726;23.342;2023-02-13T05:41:36;97251.03;;;-2.45;nan
6224;BME280;3145;42.726;23.342;2023-02-13T05:44:03;97238.25;;;-2.50;nan
6224;BME280;3145;42.726;23.342;2023-02-13T05:46:30;97238.16;;;-2.47;nan
6224;BME280;3145;42.726;23.342;2023-02-13T05:48:58;97257.47;;;-2.32;nan
6224;BME280;3145;42.726;23.342;2023-02-13T05:51:25;97253.78;;;-2.25;nan
6224;BME280;3145;42.726;23.342;2023-02-13T05:53:51;97260.19;;;-2.12;nan
6224;BME280;3145;42.726;23.342;2023-02-13T05:56:18;97257.94;;;-1.98;nan
6224;BME280;3145;42.726;23.342;2023-02-13T05:58:45;97259.06;;;-1.82;nan
6224;BME280;3145;42.726;23.342;2023-02-13T06:01:12;97258.47;;;-1.67;nan
6224;BME280;3145;42.726;23.342;2023-02-13T06:03:39;97247.28;;;-1.68;nan
6224;BME280;3145;42.726;23.342;2023-02-13T06:06:07;97243.94;;;-1.71;nan
6224;BME280;3145;42.726;23.342;2023-02-13T06:08:33;97256.44;;;-1.59;nan
6224;BME280;3145;42.726;23.342;2023-02-13T06:11:00;97275.88;;;-1.48;nan
6224;BME280;3145;42.726;23.342;2023-02-13T06:13:27;97264.28;;;-1.39;nan
6224;BME280;3145;42.726;23.342;2023-02-13T06:15:54;97264.41;;;-1.42;nan
6224;BME280;3145;42.726;23.342;2023-02-13T06:18:20;97270.00;;;-1.31;nan
6224;BME280;3145;42.726;23.342;2023-02-13T06:20:48;97273.22;;;-1.25;nan
6224;BME280;3145;42.726;23.342;2023-02-13T06:23:16;97275.50;;;-1.17;nan
6224;BME280;3145;42.726;23.342;2023-02-13T06:25:42;97281.06;;;-1.26;nan
6224;BME280;3145;42.726;23.342;2023-02-13T06:28:09;97277.13;;;-1.15;nan
6224;BME280;3145;42.726;23.342;2023-02-13T06:30:36;97282.03;;;-1.07;nan
6224;BME280;3145;42.726;23.342;2023-02-13T06:33:02;97277.22;;;-0.96;nan
6224;BME280;3145;42.726;23.342;2023-02-13T06:35:29;97282.84;;;-0.85;nan
6224;BME280;3145;42.726;23.342;2023-02-13T06:37:56;97261.97;;;-0.82;nan
6224;BME280;3145;42.726;23.342;2023-02-13T06:40:24;97278.19;;;-0.57;nan
6224;BME280;3145;42.726;23.342;2023-02-13T06:42:51;97280.50;;;-0.50;nan
6224;BME280;3145;42.726;23.342;2023-02-13T06:45:18;97261.84;;;-0.59;nan
6224;BME280;3145;42.726;23.342;2023-02-13T06:47:45;97291.16;;;-0.57;nan
6224;BME280;3145;42.726;23.342;2023-02-13T06:50:14;97285.00;;;-0.55;nan
6224;BME280;3145;42.726;23.342;2023-02-13T06:52:45;97276.00;;;-0.46;nan
6224;BME280;3145;42.726;23.342;2023-02-13T06:55:12;97267.56;;;-0.31;nan
6224;BME280;3145;42.726;23.342;2023-02-13T06:57:40;97279.31;;;-0.04;nan
6224;BME280;3145;42.726;23.342;2023-02-13T07:00:08;97275.00;;;0.15;nan
6224;BME280;3145;42.726;23.342;2023-02-13T07:02:38;97277.53;;;0.54;nan
6224;BME280;3145;42.726;23.342;2023-02-13T07:05:05;97279.00;;;0.96;nan
6224;BME280;3145;42.726;23.342;2023-02-13T07:07:32;97278.88;;;1.16;nan
6224;BME280;3145;42.726;23.342;2023-02-13T07:10:00;97275.44;;;1.33;nan
6224;BME280;3145;42.726;23.342;2023-02-13T07:12:26;97270.94;;;1.87;nan
6224;BME280;3145;42.726;23.342;2023-02-13T07:14:55;97276.59;;;2.43;nan
6224;BME280;3145;42.726;23.342;2023-02-13T07:17:21;97283.84;;;2.69;nan
6224;BME280;3145;42.726;23.342;2023-02-13T07:19:48;97292.53;;;3.01;nan
6224;BME280;3145;42.726;23.342;2023-02-13T07:22:15;97288.06;;;3.18;nan
6224;BME280;3145;42.726;23.342;2023-02-13T07:24:41;97265.06;;;3.25;nan
6224;BME280;3145;42.726;23.342;2023-02-13T07:27:08;97286.44;;;3.31;nan
6224;BME280;3145;42.726;23.342;2023-02-13T07:29:35;97288.97;;;3.17;nan
6224;BME280;3145;42.726;23.342;2023-02-13T07:32:03;97290.16;;;3.12;nan
6224;BME280;3145;42.726;23.342;2023-02-13T07:34:31;97284.22;;;3.39;nan
6224;BME280;3145;42.726;23.342;2023-02-13T07:36:58;97266.13;;;3.66;nan
6224;BME280;3145;42.726;23.342;2023-02-13T07:39:24;97280.69;;;4.13;nan
6224;BME280;3145;42.726;23.342;2023-02-13T07:41:51;97277.09;;;4.00;nan
6224;BME280;3145;42.726;23.342;2023-02-13T07:44:18;97283.75;;;4.34;nan
6224;BME280;3145;42.726;23.342;2023-02-13T07:46:44;97277.00;;;3.88;nan
6224;BME280;3145;42.726;23.342;2023-02-13T07:49:12;97270.06;;;3.43;nan
6224;BME280;3145;42.726;23.342;2023-02-13T07:51:39;97277.38;;;3.52;nan
6224;BME280;3145;42.726;23.342;2023-02-13T07:54:06;97273.63;;;3.42;nan
6224;BME280;3145;42.726;23.342;2023-02-13T07:56:32;97284.16;;;3.25;nan
6224;BME280;3145;42.726;23.342;2023-02-13T07:58:59;97286.56;;;3.14;nan
6224;BME280;3145;42.726;23.342;2023-02-13T08:01:26;97295.03;;;3.18;nan
6224;BME280;3145;42.726;23.342;2023-02-13T08:03:53;97294.19;;;3.17;nan
6224;BME280;3145;42.726;23.342;2023-02-13T08:06:21;97294.38;;;3.14;nan
6224;BME280;3145;42.726;23.342;2023-02-13T08:08:48;97294.38;;;3.14;nan
6224;BME280;3145;42.726;23.342;2023-02-13T08:11:35;97240.53;;;2.82;nan
6224;BME280;3145;42.726;23.342;2023-02-13T08:14:19;97289.66;;;3.05;nan
6224;BME280;3145;42.726;23.342;2023-02-13T08:16:46;97284.94;;;3.12;nan
6224;BME280;3145;42.726;23.342;2023-02-13T08:19:13;97281.50;;;3.11;nan
6224;BME280;3145;42.726;23.342;2023-02-13T08:21:41;97279.03;;;3.24;nan
6224;BME280;3145;42.726;23.342;2023-02-13T08:24:08;97277.50;;;3.35;nan
6224;BME280;3145;42.726;23.342;2023-02-13T08:26:35;97279.25;;;3.64;nan
6224;BME280;3145;42.726;23.342;2023-02-13T08:29:02;97279.50;;;3.75;nan
6224;BME280;3145;42.726;23.342;2023-02-13T08:31:29;97283.78;;;3.76;nan
6224;BME280;3145;42.726;23.342;2023-02-13T08:33:56;97279.41;;;3.47;nan
6224;BME280;3145;42.726;23.342;2023-02-13T08:36:23;97268.78;;;3.50;nan
6224;BME280;3145;42.726;23.342;2023-02-13T08:38:51;97280.50;;;3.73;nan
6224;BME280;3145;42.726;23.342;2023-02-13T08:41:18;97261.34;;;3.72;nan
6224;BME280;3145;42.726;23.342;2023-02-13T08:43:47;97282.94;;;3.76;nan
6224;BME280;3145;42.726;23.342;2023-02-13T08:46:14;97274.81;;;3.80;nan
6224;BME280;3145;42.726;23.342;2023-02-13T08:48:41;97273.53;;;3.87;nan
6224;BME280;3145;42.726;23.342;2023-02-13T08:51:09;97272.97;;;3.82;nan
6224;BME280;3145;42.726;23.342;2023-02-13T08:53:37;97266.56;;;3.58;nan
6224;BME280;3145;42.726;23.342;2023-02-13T08:56:06;97277.59;;;3.77;nan
6224;BME280;3145;42.726;23.342;2023-02-13T08:58:33;97263.25;;;3.84;nan
6224;BME280;3145;42.726;23.342;2023-02-13T09:00:59;97230.16;;;3.69;nan
6224;BME280;3145;42.726;23.342;2023-02-13T09:03:29;97274.94;;;4.07;nan
6224;BME280;3145;42.726;23.342;2023-02-13T09:06:01;97272.84;;;4.13;nan
6224;BME280;3145;42.726;23.342;2023-02-13T09:08:27;97267.88;;;4.23;nan
6224;BME280;3145;42.726;23.342;2023-02-13T09:10:55;97267.25;;;4.33;nan
6224;BME280;3145;42.726;23.342;2023-02-13T09:13:24;97261.88;;;4.35;nan
6224;BME280;3145;42.726;23.342;2023-02-13T09:15:50;97258.28;;;4.37;nan
6224;BME280;3145;42.726;23.342;2023-02-13T09:18:17;97273.75;;;4.54;nan
6224;BME280;3145;42.726;23.342;2023-02-13T09:20:44;97264.59;;;4.47;nan
6224;BME280;3145;42.726;23.342;2023-02-13T09:23:10;97270.75;;;4.60;nan
6224;BME280;3145;42.726;23.342;2023-02-13T09:25:37;97265.16;;;4.52;nan
6224;BME280;3145;42.726;23.342;2023-02-13T09:28:04;97270.97;;;4.57;nan
6224;BME280;3145;42.726;23.342;2023-02-13T09:30:32;97266.47;;;4.59;nan
6224;BME280;3145;42.726;23.342;2023-02-13T09:32:58;97262.84;;;4.48;nan
6224;BME280;3145;42.726;23.342;2023-02-13T09:35:25;97257.59;;;4.48;nan
6224;BME280;3145;42.726;23.342;2023-02-13T09:37:53;97253.00;;;4.51;nan
6224;BME280;3145;42.726;23.342;2023-02-13T09:40:24;97246.69;;;4.41;nan
6224;BME280;3145;42.726;23.342;2023-02-13T09:42:51;97252.06;;;4.66;nan
6224;BME280;3145;42.726;23.342;2023-02-13T09:45:20;97245.09;;;4.79;nan
6224;BME280;3145;42.726;23.342;2023-02-13T09:47:49;97243.03;;;4.84;nan
6224;BME280;3145;42.726;23.342;2023-02-13T09:50:20;97238.09;;;4.80;nan
6224;BME280;3145;42.726;23.342;2023-02-13T09:52:49;97241.16;;;4.86;nan
6224;BME280;3145;42.726;23.342;2023-02-13T09:55:18;97237.97;;;4.95;nan
6224;BME280;3145;42.726;23.342;2023-02-13T09:57:52;97221.28;;;4.96;nan
6224;BME280;3145;42.726;23.342;2023-02-13T10:00:27;97229.88;;;5.13;nan
6224;BME280;3145;42.726;23.342;2023-02-13T10:03:16;97217.69;;;5.12;nan
6224;BME280;3145;42.726;23.342;2023-02-13T10:05:55;97207.22;;;5.12;nan
6224;BME280;3145;42.726;23.342;2023-02-13T10:08:36;97221.50;;;5.72;nan
6224;BME280;3145;42.726;23.342;2023-02-13T10:11:19;97195.66;;;6.05;nan
6224;BME280;3145;42.726;23.342;2023-02-13T10:14:00;97213.69;;;6.22;nan
6224;BME280;3145;42.726;23.342;2023-02-13T10:16:29;97206.97;;;6.18;nan
6224;BME280;3145;42.726;23.342;2023-02-13T10:19:03;97197.94;;;6.22;nan
6224;BME280;3145;42.726;23.342;2023-02-13T10:21:37;97194.78;;;6.42;nan
6224;BME280;3145;42.726;23.342;2023-02-13T10:24:11;97183.84;;;6.48;nan
6224;BME280;3145;42.726;23.342;2023-02-13T10:26:41;97182.88;;;6.85;nan
6224;BME280;3145;42.726;23.342;2023-02-13T10:29:14;97178.41;;;7.21;nan
6224;BME280;3145;42.726;23.342;2023-02-13T10:32:07;97163.72;;;7.30;nan
6224;BME280;3145;42.726;23.342;2023-02-13T10:34:41;97172.63;;;7.51;nan
6224;BME280;3145;42.726;23.342;2023-02-13T10:37:13;97155.19;;;7.50;nan
6224;BME280;3145;42.726;23.342;2023-02-13T10:39:43;97167.38;;;7.51;nan
6224;BME280;3145;42.726;23.342;2023-02-13T10:42:19;97157.66;;;7.75;nan
6224;BME280;3145;42.726;23.342;2023-02-13T10:44:56;97142.38;;;7.91;nan
6224;BME280;3145;42.726;23.342;2023-02-13T10:47:44;97135.66;;;7.98;nan
6224;BME280;3145;42.726;23.342;2023-02-13T10:50:22;97146.44;;;8.06;nan
6224;BME280;3145;42.726;23.342;2023-02-13T10:53:01;97142.41;;;8.24;nan
6224;BME280;3145;42.726;23.342;2023-02-13T10:55:58;97117.47;;;8.06;nan
6224;BME280;3145;42.726;23.342;2023-02-13T10:58:32;97128.75;;;8.30;nan
6224;BME280;3145;42.726;23.342;2023-02-13T11:01:07;97138.31;;;8.20;nan
6224;BME280;3145;42.726;23.342;2023-02-13T11:03:35;97134.28;;;8.27;nan
6224;BME280;3145;42.726;23.342;2023-02-13T11:06:06;97127.31;;;8.37;nan
6224;BME280;3145;42.726;23.342;2023-02-13T11:08:38;97114.38;;;8.45;nan
6224;BME280;3145;42.726;23.342;2023-02-13T11:11:28;97053.59;;;8.15;nan
6224;BME280;3145;42.726;23.342;2023-02-13T11:14:11;97107.09;;;8.37;nan
6224;BME280;3145;42.726;23.342;2023-02-13T11:16:57;97117.19;;;8.75;nan
6224;BME280;3145;42.726;23.342;2023-02-13T11:19:29;97102.03;;;8.99;nan
6224;BME280;3145;42.726;23.342;2023-02-13T11:22:07;97078.16;;;9.21;50.81
6224;BME280;3145;42.726;23.342;2023-02-13T11:24:39;97091.63;;;9.38;49.32
6224;BME280;3145;42.726;23.342;2023-02-13T11:27:07;97087.69;;;9.53;48.98
6224;BME280;3145;42.726;23.342;2023-02-13T11:29:51;97085.06;;;9.33;48.14
6224;BME280;3145;42.726;23.342;2023-02-13T11:32:20;97072.25;;;9.08;48.16
6224;BME280;3145;42.726;23.342;2023-02-13T11:34:48;97004.31;;;8.80;48.16
6224;BME280;3145;42.726;23.342;2023-02-13T11:37:23;97049.66;;;8.94;48.01
6224;BME280;3145;42.726;23.342;2023-02-13T11:39:51;97061.91;;;9.36;48.26
6224;BME280;3145;42.726;23.342;2023-02-13T11:42:23;97059.97;;;9.38;47.03
6224;BME280;3145;42.726;23.342;2023-02-13T11:44:53;97047.59;;;9.59;46.68
6224;BME280;3145;42.726;23.342;2023-02-13T11:47:31;97040.59;;;9.49;46.75
6224;BME280;3145;42.726;23.342;2023-02-13T11:49:59;97039.66;;;9.50;46.06
6224;BME280;3145;42.726;23.342;2023-02-13T11:52:28;97018.47;;;9.20;45.61
6224;BME280;3145;42.726;23.342;2023-02-13T11:54:58;97024.47;;;9.22;45.61
6224;BME280;3145;42.726;23.342;2023-02-13T11:57:29;97004.19;;;9.22;45.28
6224;BME280;3145;42.726;23.342;2023-02-13T11:59:57;97026.72;;;9.47;45.42
6224;BME280;3145;42.726;23.342;2023-02-13T12:02:26;97008.94;;;9.49;45.21
6224;BME280;3145;42.726;23.342;2023-02-13T12:04:54;97020.31;;;9.49;44.81
6224;BME280;3145;42.726;23.342;2023-02-13T12:07:23;96973.84;;;9.28;44.76
6224;BME280;3145;42.726;23.342;2023-02-13T12:09:58;97011.75;;;9.57;44.55
6224;BME280;3145;42.726;23.342;2023-02-13T12:12:32;97006.56;;;9.76;44.78
6224;BME280;3145;42.726;23.342;2023-02-13T12:15:03;97003.78;;;9.78;43.49
6224;BME280;3145;42.726;23.342;2023-02-13T12:17:36;96997.66;;;9.77;42.98
6224;BME280;3145;42.726;23.342;2023-02-13T12:20:04;96991.53;;;9.67;43.22
6224;BME280;3145;42.726;23.342;2023-02-13T12:22:38;96991.56;;;9.77;42.68
6224;BME280;3145;42.726;23.342;2023-02-13T12:25:40;96993.41;;;9.55;43.11
6224;BME280;3145;42.726;23.342;2023-02-13T12:28:14;96993.00;;;9.60;42.71
6224;BME280;3145;42.726;23.342;2023-02-13T12:33:58;96981.28;;;9.74;41.21
6224;BME280;3145;42.726;23.342;2023-02-13T12:36:35;96988.13;;;9.55;41.27
6224;BME280;3145;42.726;23.342;2023-02-13T12:39:16;96982.88;;;9.65;40.32
6224;BME280;3145;42.726;23.342;2023-02-13T12:41:50;96985.28;;;9.38;40.24
6224;BME280;3145;42.726;23.342;2023-02-13T12:44:31;96979.66;;;9.22;40.48
6224;BME280;3145;42.726;23.342;2023-02-13T12:47:13;96975.00;;;9.35;40.63
6224;BME280;3145;42.726;23.342;2023-02-13T12:49:57;96964.91;;;9.19;40.51
6224;BME280;3145;42.726;23.342;2023-02-13T12:52:38;96970.94;;;9.31;40.57
6224;BME280;3145;42.726;23.342;2023-02-13T12:55:18;96966.09;;;9.36;41.20
6224;BME280;3145;42.726;23.342;2023-02-13T12:57:58;96949.13;;;9.29;40.76
6224;BME280;3145;42.726;23.342;2023-02-13T13:00:37;96955.38;;;9.58;40.55
6224;BME280;3145;42.726;23.342;2023-02-13T13:03:24;96954.41;;;9.59;39.91
6224;BME280;3145;42.726;23.342;2023-02-13T13:06:06;96954.66;;;9.56;39.47
6224;BME280;3145;42.726;23.342;2023-02-13T13:08:46;96945.19;;;9.14;39.93
6224;BME280;3145;42.726;23.342;2023-02-13T13:11:29;96939.25;;;9.01;40.92
6224;BME280;3145;42.726;23.342;2023-02-13T13:14:08;96954.03;;;9.13;41.41
6224;BME280;3145;42.726;23.342;2023-02-13T13:16:43;96943.13;;;8.97;41.33
6224;BME280;3145;42.726;23.342;2023-02-13T13:19:21;96940.03;;;8.92;41.00
6224;BME280;3145;42.726;23.342;2023-02-13T13:21:57;96927.19;;;8.78;41.24
6224;BME280;3145;42.726;23.342;2023-02-13T13:24:32;96923.97;;;8.95;40.99
6224;BME280;3145;42.726;23.342;2023-02-13T13:27:03;96929.63;;;8.90;41.21
6224;BME280;3145;42.726;23.342;2023-02-13T13:29:42;96946.72;;;8.96;41.95
6224;BME280;3145;42.726;23.342;2023-02-13T13:32:13;96936.19;;;8.96;42.24
6224;BME280;3145;42.726;23.342;2023-02-13T13:34:42;96920.78;;;8.71;42.64
6224;BME280;3145;42.726;23.342;2023-02-13T13:37:15;96933.69;;;8.94;42.59
6224;BME280;3145;42.726;23.342;2023-02-13T13:39:49;96938.03;;;9.05;42.76
6224;BME280;3145;42.726;23.342;2023-02-13T13:42:23;96928.47;;;9.04;42.62
6224;BME280;3145;42.726;23.342;2023-02-13T13:45:17;96937.41;;;8.92;42.58
6224;BME280;3145;42.726;23.342;2023-02-13T13:50:40;96930.28;;;8.83;43.47
6224;BME280;3145;42.726;23.342;2023-02-13T13:53:10;96933.38;;;8.88;43.01
6224;BME280;3145;42.726;23.342;2023-02-13T13:56:04;96931.69;;;8.87;43.07
6224;BME280;3145;42.726;23.342;2023-02-13T13:58:38;96928.09;;;8.67;42.90
6224;BME280;3145;42.726;23.342;2023-02-13T14:03:54;96929.56;;;8.40;44.56
6224;BME280;3145;42.726;23.342;2023-02-13T14:06:22;96922.50;;;8.40;44.30
6224;BME280;3145;42.726;23.342;2023-02-13T14:09:08;96921.66;;;8.40;44.12
6224;BME280;3145;42.726;23.342;2023-02-13T14:11:54;96920.81;;;8.39;44.25
6224;BME280;3145;42.726;23.342;2023-02-13T14:17:14;96897.47;;;8.03;44.62